createdAt,value
2018-04-22T00:00:01.479Z,17.8
2018-04-22T00:00:51.264Z,17.8
2018-04-22T00:01:41.583Z,17.8
2018-04-22T00:02:30.529Z,17.8
2018-04-22T00:03:21.413Z,17.8
2018-04-22T00:04:11.806Z,17.8
2018-04-22T00:05:02.085Z,17.8
2018-04-22T00:05:52.188Z,17.8
2018-04-22T00:06:41.112Z,17.8
2018-04-22T00:07:30.977Z,17.8
2018-04-22T00:08:22.359Z,17.8
2018-04-22T00:09:11.886Z,17.8
2018-04-22T00:10:02.329Z,17.8
2018-04-22T00:10:51.972Z,17.8
2018-04-22T00:11:41.768Z,17.8
2018-04-22T00:12:32.174Z,17.8
2018-04-22T00:13:21.978Z,17.8
2018-04-22T00:14:12.932Z,17.8
2018-04-22T00:15:02.602Z,17.8
2018-04-22T00:15:51.886Z,17.8
2018-04-22T00:16:42.158Z,17.8
2018-04-22T00:17:32.478Z,17.8
2018-04-22T00:18:22.561Z,17.8
2018-04-22T00:19:13.236Z,17.8
2018-04-22T00:20:03.260Z,17.8
2018-04-22T00:20:52.770Z,17.8
2018-04-22T00:21:43.084Z,17.8
2018-04-22T00:22:32.886Z,17.8
2018-04-22T00:23:22.051Z,17.8
2018-04-22T00:24:12.716Z,17.8
2018-04-22T00:25:02.888Z,17.8
2018-04-22T00:25:52.627Z,17.8
2018-04-22T00:26:42.709Z,17.8
2018-04-22T00:27:33.338Z,17.8
2018-04-22T00:28:23.415Z,17.8
2018-04-22T00:29:12.910Z,17.8
2018-04-22T00:30:02.536Z,17.8
2018-04-22T00:30:53.548Z,17.8
2018-04-22T00:31:42.814Z,17.8
2018-04-22T00:32:33.205Z,17.8
2018-04-22T00:33:23.006Z,17.8
2018-04-22T00:34:13.758Z,17.8
2018-04-22T00:35:03.339Z,17.8
2018-04-22T00:35:53.377Z,17.8
2018-04-22T00:36:44.517Z,17.8
2018-04-22T00:37:33.778Z,17.8
2018-04-22T00:38:23.523Z,17.8
2018-04-22T00:39:14.706Z,17.8
2018-04-22T00:40:04.485Z,17.8
2018-04-22T00:40:54.021Z,17.8
2018-04-22T00:41:44.325Z,17.7
2018-04-22T00:42:34.125Z,17.8
2018-04-22T00:43:24.763Z,17.8
2018-04-22T00:44:14.534Z,17.8
2018-04-22T00:45:04.431Z,17.8
2018-04-22T00:45:54.485Z,17.8
2018-04-22T00:46:45.264Z,17.8
2018-04-22T00:47:33.456Z,17.8
2018-04-22T00:48:24.908Z,17.8
2018-04-22T00:49:14.953Z,17.7
2018-04-22T00:50:04.493Z,17.8
2018-04-22T00:50:54.853Z,17.7
2018-04-22T00:51:44.627Z,17.7
2018-04-22T00:52:34.435Z,17.7
2018-04-22T00:53:25.268Z,17.7
2018-04-22T00:54:15.035Z,17.7
2018-04-22T00:55:04.585Z,17.7
2018-04-22T00:55:55.240Z,17.7
2018-04-22T00:56:44.977Z,17.7
2018-04-22T00:57:35.071Z,17.7
2018-04-22T00:58:24.833Z,17.7
2018-04-22T00:59:15.180Z,17.7
2018-04-22T01:00:04.459Z,17.7
2018-04-22T01:00:55.272Z,17.7
2018-04-22T01:01:45.110Z,17.7
2018-04-22T01:02:35.142Z,17.7
2018-04-22T01:03:25.805Z,17.7
2018-04-22T01:04:15.624Z,17.7
2018-04-22T01:05:05.669Z,17.7
2018-04-22T01:05:55.454Z,17.7
2018-04-22T01:06:45.454Z,17.7
2018-04-22T01:07:35.547Z,17.6
2018-04-22T01:08:25.303Z,17.7
2018-04-22T01:09:14.858Z,17.7
2018-04-22T01:10:06.322Z,17.7
2018-04-22T01:10:55.837Z,17.6
2018-04-22T01:11:47.233Z,17.6
2018-04-22T01:12:36.983Z,17.7
2018-04-22T01:13:26.974Z,17.6
2018-04-22T01:14:17.144Z,17.6
2018-04-22T01:15:06.690Z,17.6
2018-04-22T01:15:56.467Z,17.6
2018-04-22T01:16:47.148Z,17.6
2018-04-22T01:17:36.802Z,17.7
2018-04-22T01:18:26.923Z,17.7
2018-04-22T01:19:16.964Z,17.6
2018-04-22T01:20:06.501Z,17.6
2018-04-22T01:20:57.396Z,17.6
2018-04-22T01:21:46.342Z,17.7
2018-04-22T01:22:37.751Z,17.6
2018-04-22T01:23:27.561Z,17.6
2018-04-22T01:24:17.101Z,17.6
2018-04-22T01:25:06.851Z,17.6
2018-04-22T01:25:57.710Z,17.6
2018-04-22T01:26:47.507Z,17.6
2018-04-22T01:27:37.317Z,17.6
2018-04-22T01:28:27.915Z,17.6
2018-04-22T01:29:17.954Z,17.6
2018-04-22T01:30:07.468Z,17.6
2018-04-22T01:30:58.640Z,17.6
2018-04-22T01:31:48.702Z,17.6
2018-04-22T01:32:37.663Z,17.6
2018-04-22T01:33:27.478Z,17.6
2018-04-22T01:34:18.641Z,17.6
2018-04-22T01:35:08.943Z,17.6
2018-04-22T01:35:58.771Z,17.6
2018-04-22T01:36:47.992Z,17.6
2018-04-22T01:37:38.284Z,17.6
2018-04-22T01:38:28.891Z,17.6
2018-04-22T01:39:19.099Z,17.6
2018-04-22T01:40:09.360Z,17.6
2018-04-22T01:40:58.824Z,17.6
2018-04-22T01:41:48.663Z,17.6
2018-04-22T01:42:37.838Z,17.6
2018-04-22T01:43:29.019Z,17.6
2018-04-22T01:44:19.080Z,17.6
2018-04-22T01:45:09.208Z,17.6
2018-04-22T01:45:59.183Z,17.6
2018-04-22T01:46:49.560Z,17.6
2018-04-22T01:47:39.898Z,17.6
2018-04-22T01:48:29.711Z,17.6
2018-04-22T01:49:20.021Z,17.6
2018-04-22T01:50:09.535Z,17.6
2018-04-22T01:50:59.619Z,17.6
2018-04-22T01:51:49.948Z,17.6
2018-04-22T01:52:39.186Z,17.6
2018-04-22T01:53:29.227Z,17.6
2018-04-22T01:54:19.895Z,17.6
2018-04-22T01:55:09.961Z,17.6
2018-04-22T01:56:00.075Z,17.6
2018-04-22T01:56:50.315Z,17.6
2018-04-22T01:57:40.466Z,17.6
2018-04-22T01:58:30.211Z,17.6
2018-04-22T01:59:19.968Z,17.6
2018-04-22T02:00:10.371Z,17.5
2018-04-22T02:00:59.849Z,17.6
2018-04-22T02:01:49.069Z,17.6
2018-04-22T02:02:40.539Z,17.5
2018-04-22T02:03:30.566Z,17.5
2018-04-22T02:04:19.542Z,17.6
2018-04-22T02:05:11.322Z,17.6
2018-04-22T02:06:00.239Z,17.5
2018-04-22T02:06:50.554Z,17.6
2018-04-22T02:07:40.906Z,17.6
2018-04-22T02:08:31.043Z,17.5
2018-04-22T02:09:20.179Z,17.5
2018-04-22T02:10:11.092Z,17.5
2018-04-22T02:11:00.295Z,17.5
2018-04-22T02:11:50.988Z,17.5
2018-04-22T02:12:40.221Z,17.5
2018-04-22T02:13:30.315Z,17.5
2018-04-22T02:14:20.617Z,17.5
2018-04-22T02:15:11.780Z,17.5
2018-04-22T02:16:01.589Z,17.5
2018-04-22T02:16:51.573Z,17.5
2018-04-22T02:17:41.652Z,17.5
2018-04-22T02:18:32.283Z,17.5
2018-04-22T02:19:22.300Z,17.5
2018-04-22T02:20:11.820Z,17.5
2018-04-22T02:21:02.153Z,17.5
2018-04-22T02:21:51.404Z,17.5
2018-04-22T02:22:42.319Z,17.5
2018-04-22T02:23:32.608Z,17.5
2018-04-22T02:24:21.891Z,17.5
2018-04-22T02:25:11.894Z,17.5
2018-04-22T02:26:02.576Z,17.5
2018-04-22T02:26:52.710Z,17.5
2018-04-22T02:27:42.695Z,17.5
2018-04-22T02:28:31.654Z,17.5
2018-04-22T02:29:22.233Z,17.4
2018-04-22T02:30:12.361Z,17.5
2018-04-22T02:31:02.697Z,17.4
2018-04-22T02:31:52.744Z,17.4
2018-04-22T02:32:42.847Z,17.4
2018-04-22T02:33:33.452Z,17.4
2018-04-22T02:34:22.711Z,17.4
2018-04-22T02:35:12.741Z,17.4
2018-04-22T02:36:03.057Z,17.4
2018-04-22T02:36:53.352Z,17.4
2018-04-22T02:37:42.949Z,17.4
2018-04-22T02:38:33.288Z,17.4
2018-04-22T02:39:23.616Z,17.4
2018-04-22T02:40:13.620Z,17.4
2018-04-22T02:41:03.564Z,17.4
2018-04-22T02:41:52.987Z,17.4
2018-04-22T02:42:43.627Z,17.4
2018-04-22T02:43:33.798Z,17.4
2018-04-22T02:44:23.137Z,17.4
2018-04-22T02:45:13.189Z,17.4
2018-04-22T02:46:03.552Z,17.4
2018-04-22T02:46:54.239Z,17.4
2018-04-22T02:47:43.664Z,17.4
2018-04-22T02:48:32.875Z,17.4
2018-04-22T02:49:24.328Z,17.4
2018-04-22T02:50:13.824Z,17.4
2018-04-22T02:51:04.251Z,17.4
2018-04-22T02:51:54.052Z,17.4
2018-04-22T02:52:44.037Z,17.4
2018-04-22T02:53:33.282Z,17.4
2018-04-22T02:54:24.494Z,17.4
2018-04-22T02:55:14.789Z,17.4
2018-04-22T02:56:04.011Z,17.4
2018-04-22T02:56:54.122Z,17.4
2018-04-22T02:57:44.424Z,17.4
2018-04-22T02:58:34.188Z,17.4
2018-04-22T02:59:25.348Z,17.4
2018-04-22T03:00:15.158Z,17.4
2018-04-22T03:01:04.647Z,17.4
2018-04-22T03:01:54.527Z,17.4
2018-04-22T03:02:43.956Z,17.4
2018-04-22T03:03:35.114Z,17.4
2018-04-22T03:04:25.504Z,17.4
2018-04-22T03:05:14.941Z,17.4
2018-04-22T03:06:05.086Z,17.4
2018-04-22T03:06:55.423Z,17.4
2018-04-22T03:07:44.646Z,17.4
2018-04-22T03:08:35.254Z,17.4
2018-04-22T03:09:25.348Z,17.4
2018-04-22T03:10:15.131Z,17.4
2018-04-22T03:11:05.112Z,17.4
2018-04-22T03:11:56.015Z,17.4
2018-04-22T03:12:46.115Z,17.4
2018-04-22T03:13:35.599Z,17.4
2018-04-22T03:14:26.241Z,17.4
2018-04-22T03:15:16.281Z,17.4
2018-04-22T03:16:06.080Z,17.4
2018-04-22T03:16:55.884Z,17.4
2018-04-22T03:17:45.929Z,17.4
2018-04-22T03:18:36.552Z,17.4
2018-04-22T03:19:26.565Z,17.4
2018-04-22T03:20:16.372Z,17.4
2018-04-22T03:21:05.893Z,17.3
2018-04-22T03:21:55.421Z,17.3
2018-04-22T03:22:45.492Z,17.4
2018-04-22T03:23:35.215Z,17.4
2018-04-22T03:24:27.280Z,17.3
2018-04-22T03:25:32.006Z,17.3
2018-04-22T03:26:57.277Z,17.3
2018-04-22T03:27:46.139Z,17.3
2018-04-22T03:28:36.997Z,17.3
2018-04-22T03:29:26.569Z,17.3
2018-04-22T03:30:17.163Z,17.3
2018-04-22T03:31:07.533Z,17.3
2018-04-22T03:31:57.035Z,17.3
2018-04-22T03:32:47.631Z,17.3
2018-04-22T03:33:37.687Z,17.3
2018-04-22T03:34:27.146Z,17.3
2018-04-22T03:35:17.574Z,17.3
2018-04-22T03:36:08.141Z,17.3
2018-04-22T03:36:58.222Z,17.3
2018-04-22T03:37:47.410Z,17.3
2018-04-22T03:38:37.767Z,17.3
2018-04-22T03:39:27.840Z,17.3
2018-04-22T03:40:17.843Z,17.3
2018-04-22T03:41:08.231Z,17.3
2018-04-22T03:41:58.314Z,17.3
2018-04-22T03:42:47.805Z,17.3
2018-04-22T03:43:38.768Z,17.3
2018-04-22T03:44:28.208Z,17.3
2018-04-22T03:45:18.520Z,17.3
2018-04-22T03:46:08.370Z,17.3
2018-04-22T03:46:58.390Z,17.3
2018-04-22T03:47:47.590Z,17.3
2018-04-22T03:48:38.496Z,17.3
2018-04-22T03:49:29.151Z,17.3
2018-04-22T03:50:18.628Z,17.3
2018-04-22T03:51:08.416Z,17.3
2018-04-22T03:51:59.354Z,17.3
2018-04-22T03:52:48.309Z,17.3
2018-04-22T03:53:38.715Z,17.3
2018-04-22T03:54:29.054Z,17.3
2018-04-22T03:55:19.048Z,17.3
2018-04-22T03:56:09.405Z,17.3
2018-04-22T03:56:59.145Z,17.3
2018-04-22T03:57:49.190Z,17.3
2018-04-22T03:58:39.001Z,17.3
2018-04-22T03:59:29.055Z,17.3
2018-04-22T04:00:19.688Z,17.3
2018-04-22T04:01:09.177Z,17.3
2018-04-22T04:01:59.055Z,17.3
2018-04-22T04:02:49.298Z,17.3
2018-04-22T04:03:39.634Z,17.3
2018-04-22T04:04:29.780Z,17.3
2018-04-22T04:05:19.901Z,17.3
2018-04-22T04:06:10.131Z,17.3
2018-04-22T04:06:59.745Z,17.3
2018-04-22T04:07:50.048Z,17.3
2018-04-22T04:08:40.141Z,17.3
2018-04-22T04:09:29.537Z,17.3
2018-04-22T04:10:19.945Z,17.3
2018-04-22T04:11:09.723Z,17.3
2018-04-22T04:12:00.143Z,17.3
2018-04-22T04:12:50.445Z,17.2
2018-04-22T04:13:40.475Z,17.3
2018-04-22T04:14:30.282Z,17.3
2018-04-22T04:15:20.301Z,17.3
2018-04-22T04:16:10.393Z,17.2
2018-04-22T04:17:00.792Z,17.3
2018-04-22T04:17:50.280Z,17.2
2018-04-22T04:18:40.568Z,17.3
2018-04-22T04:19:30.499Z,17.3
2018-04-22T04:20:20.177Z,17.2
2018-04-22T04:21:10.792Z,17.2
2018-04-22T04:22:00.341Z,17.2
2018-04-22T04:22:51.189Z,17.2
2018-04-22T04:23:40.150Z,17.2
2018-04-22T04:24:31.012Z,17.2
2018-04-22T04:25:20.299Z,17.2
2018-04-22T04:26:10.917Z,17.2
2018-04-22T04:27:00.673Z,17.2
2018-04-22T04:27:51.111Z,17.2
2018-04-22T04:28:41.116Z,17.2
2018-04-22T04:29:31.233Z,17.2
2018-04-22T04:30:20.681Z,17.2
2018-04-22T04:31:11.597Z,17.2
2018-04-22T04:32:01.041Z,17.2
2018-04-22T04:32:51.928Z,17.2
2018-04-22T04:33:41.439Z,17.2
2018-04-22T04:34:31.848Z,17.2
2018-04-22T04:35:22.109Z,17.2
2018-04-22T04:36:12.286Z,17.2
2018-04-22T04:37:01.206Z,17.2
2018-04-22T04:37:51.251Z,17.2
2018-04-22T04:38:42.400Z,17.2
2018-04-22T04:39:32.385Z,17.2
2018-04-22T04:40:22.716Z,17.2
2018-04-22T04:41:12.263Z,17.2
2018-04-22T04:42:02.009Z,17.2
2018-04-22T04:42:52.711Z,17.2
2018-04-22T04:43:42.528Z,17.2
2018-04-22T04:44:32.809Z,17.2
2018-04-22T04:45:22.533Z,17.2
2018-04-22T04:46:12.563Z,17.2
2018-04-22T04:47:02.774Z,17.2
2018-04-22T04:47:53.071Z,17.2
2018-04-22T04:48:42.603Z,17.1
2018-04-22T04:49:32.180Z,17.1
2018-04-22T04:50:22.762Z,17.2
2018-04-22T04:51:13.352Z,17.1
2018-04-22T04:52:02.887Z,17.2
2018-04-22T04:52:52.679Z,17.1
2018-04-22T04:53:42.958Z,17.1
2018-04-22T04:54:33.280Z,17.1
2018-04-22T04:55:24.201Z,17.1
2018-04-22T04:56:13.782Z,17.1
2018-04-22T04:57:03.770Z,17.1
2018-04-22T04:57:53.762Z,17.1
2018-04-22T04:58:43.844Z,17.2
2018-04-22T04:59:34.457Z,17.1
2018-04-22T05:00:23.389Z,17.1
2018-04-22T05:01:14.328Z,17.1
2018-04-22T05:02:03.894Z,17.1
2018-04-22T05:02:54.467Z,17.1
2018-04-22T05:03:44.215Z,17.1
2018-04-22T05:04:33.468Z,17.1
2018-04-22T05:05:24.649Z,17.1
2018-04-22T05:06:14.477Z,17.1
2018-04-22T05:07:05.073Z,17.1
2018-04-22T05:07:54.531Z,17.1
2018-04-22T05:08:44.318Z,17.1
2018-04-22T05:09:35.194Z,17.1
2018-04-22T05:10:24.230Z,17.1
2018-04-22T05:11:15.407Z,17.1
2018-04-22T05:12:04.895Z,17.1
2018-04-22T05:12:54.936Z,17.1
2018-04-22T05:13:44.685Z,17.1
2018-04-22T05:14:35.376Z,17.1
2018-04-22T05:15:25.065Z,17.1
2018-04-22T05:16:14.845Z,17.1
2018-04-22T05:17:04.983Z,17.1
2018-04-22T05:17:55.588Z,17.1
2018-04-22T05:18:46.206Z,17.1
2018-04-22T05:19:36.016Z,17.1
2018-04-22T05:20:24.913Z,17.1
2018-04-22T05:21:14.732Z,17.1
2018-04-22T05:22:05.907Z,17.1
2018-04-22T05:22:55.388Z,17.1
2018-04-22T05:23:46.003Z,17.1
2018-04-22T05:24:35.545Z,17.1
2018-04-22T05:25:26.148Z,17.1
2018-04-22T05:26:15.955Z,17.1
2018-04-22T05:27:06.359Z,17.1
2018-04-22T05:27:56.316Z,17.1
2018-04-22T05:28:46.403Z,17.1
2018-04-22T05:29:36.717Z,17.1
2018-04-22T05:30:26.227Z,17.1
2018-04-22T05:31:17.446Z,17.1
2018-04-22T05:32:06.162Z,17.1
2018-04-22T05:32:56.162Z,17.1
2018-04-22T05:33:46.792Z,17.1
2018-04-22T05:34:36.823Z,17.1
2018-04-22T05:35:26.656Z,17.1
2018-04-22T05:36:16.656Z,17.1
2018-04-22T05:37:56.555Z,17.1
2018-04-22T05:41:16.535Z,17.1
2018-04-22T05:42:57.706Z,17.1
2018-04-22T05:46:17.198Z,17.1
2018-04-22T05:47:58.131Z,17.1
2018-04-22T05:48:48.121Z,17.1
2018-04-22T05:49:38.341Z,17.1
2018-04-22T05:52:07.902Z,17.1
2018-04-22T05:52:58.221Z,17.1
2018-04-22T05:55:28.102Z,17.1
2018-04-22T05:58:48.388Z,17.1
2018-04-22T06:02:59.555Z,16.9
2018-04-22T06:03:48.488Z,16.9
2018-04-22T06:04:38.329Z,16.9
2018-04-22T06:05:29.205Z,16.9
2018-04-22T06:06:19.267Z,16.9
2018-04-22T06:07:08.487Z,16.9
2018-04-22T06:08:49.341Z,16.9
2018-04-22T06:11:18.884Z,16.9
2018-04-22T06:12:09.191Z,16.9
2018-04-22T06:13:00.002Z,16.9
2018-04-22T06:13:49.521Z,16.9
2018-04-22T06:14:39.958Z,16.9
2018-04-22T06:15:29.995Z,16.9
2018-04-22T06:16:20.271Z,16.9
2018-04-22T06:17:08.978Z,16.9
2018-04-22T06:18:49.642Z,16.9
2018-04-22T06:19:39.707Z,16.9
2018-04-22T06:20:30.065Z,16.9
2018-04-22T06:21:19.829Z,16.9
2018-04-22T06:22:09.440Z,16.9
2018-04-22T06:23:00.409Z,16.9
2018-04-22T06:23:50.272Z,16.9
2018-04-22T06:24:39.824Z,16.9
2018-04-22T06:25:29.896Z,16.9
2018-04-22T06:26:19.346Z,16.9
2018-04-22T06:27:09.984Z,16.9
2018-04-22T06:28:00.608Z,16.9
2018-04-22T06:28:50.087Z,16.9
2018-04-22T06:29:41.036Z,16.9
2018-04-22T06:30:31.360Z,16.9
2018-04-22T06:31:21.142Z,16.9
2018-04-22T06:32:11.254Z,16.9
2018-04-22T06:32:58.845Z,16.9
2018-04-22T06:33:50.762Z,16.9
2018-04-22T06:34:40.016Z,16.9
2018-04-22T06:35:30.398Z,16.9
2018-04-22T06:36:20.821Z,16.9
2018-04-22T06:37:10.856Z,16.9
2018-04-22T06:38:01.663Z,16.9
2018-04-22T06:38:51.729Z,16.9
2018-04-22T06:39:40.644Z,16.9
2018-04-22T06:40:30.988Z,16.9
2018-04-22T06:41:20.846Z,16.9
2018-04-22T06:42:10.588Z,16.9
2018-04-22T06:43:01.218Z,16.9
2018-04-22T06:43:51.053Z,16.9
2018-04-22T06:44:41.910Z,16.9
2018-04-22T06:45:32.253Z,16.9
2018-04-22T06:46:21.761Z,16.9
2018-04-22T06:47:12.355Z,16.9
2018-04-22T06:48:01.597Z,16.9
2018-04-22T06:48:51.935Z,16.9
2018-04-22T06:49:42.003Z,16.9
2018-04-22T06:50:32.324Z,16.9
2018-04-22T06:51:21.843Z,16.9
2018-04-22T06:52:11.885Z,16.9
2018-04-22T06:53:02.823Z,16.9
2018-04-22T06:53:52.559Z,16.9
2018-04-22T06:54:42.601Z,16.9
2018-04-22T06:55:33.005Z,16.9
2018-04-22T06:56:22.614Z,16.9
2018-04-22T06:57:13.409Z,16.9
2018-04-22T06:58:02.950Z,16.9
2018-04-22T06:58:52.882Z,16.9
2018-04-22T06:59:43.307Z,16.9
2018-04-22T07:00:33.089Z,16.9
2018-04-22T07:01:22.885Z,16.9
2018-04-22T07:02:12.076Z,16.9
2018-04-22T07:03:02.164Z,16.9
2018-04-22T07:03:52.771Z,16.9
2018-04-22T07:04:44.005Z,16.9
2018-04-22T07:05:32.909Z,16.9
2018-04-22T07:06:23.585Z,16.9
2018-04-22T07:07:13.053Z,16.9
2018-04-22T07:08:03.167Z,16.9
2018-04-22T07:08:54.009Z,16.9
2018-04-22T07:09:43.801Z,16.9
2018-04-22T07:10:33.602Z,16.9
2018-04-22T07:11:23.617Z,16.9
2018-04-22T07:12:14.034Z,16.9
2018-04-22T07:13:03.647Z,16.9
2018-04-22T07:13:53.059Z,16.9
2018-04-22T07:14:44.316Z,16.9
2018-04-22T07:15:34.854Z,16.9
2018-04-22T07:16:24.922Z,16.9
2018-04-22T07:17:14.177Z,16.9
2018-04-22T07:18:04.706Z,16.9
2018-04-22T07:18:53.984Z,16.9
2018-04-22T07:19:45.255Z,16.9
2018-04-22T07:20:35.005Z,16.9
2018-04-22T07:21:24.821Z,16.9
2018-04-22T07:22:15.077Z,16.9
2018-04-22T07:23:05.371Z,16.9
2018-04-22T07:23:54.962Z,16.9
2018-04-22T07:24:44.359Z,16.9
2018-04-22T07:25:35.267Z,16.9
2018-04-22T07:26:25.072Z,16.9
2018-04-22T07:27:14.918Z,16.9
2018-04-22T07:28:05.825Z,16.9
2018-04-22T07:28:55.249Z,16.9
2018-04-22T07:29:45.063Z,16.9
2018-04-22T07:30:34.691Z,16.9
2018-04-22T07:31:23.777Z,16.9
2018-04-22T07:32:14.055Z,16.9
2018-04-22T07:33:05.313Z,16.9
2018-04-22T07:33:54.260Z,16.9
2018-04-22T07:34:45.003Z,16.9
2018-04-22T07:35:33.781Z,16.9
2018-04-22T07:36:24.265Z,16.9
2018-04-22T07:37:14.513Z,16.9
2018-04-22T07:38:04.693Z,16.9
2018-04-22T07:38:55.241Z,16.9
2018-04-22T07:39:44.391Z,16.9
2018-04-22T07:40:35.442Z,16.9
2018-04-22T07:41:25.754Z,16.9
2018-04-22T07:42:15.768Z,16.9
2018-04-22T07:43:05.856Z,16.9
2018-04-22T07:43:55.172Z,16.9
2018-04-22T07:44:45.690Z,16.9
2018-04-22T07:45:36.302Z,16.9
2018-04-22T07:46:25.726Z,16.9
2018-04-22T07:47:15.645Z,16.9
2018-04-22T07:48:05.370Z,16.9
2018-04-22T07:48:55.393Z,16.9
2018-04-22T07:49:46.389Z,16.9
2018-04-22T07:50:36.205Z,16.9
2018-04-22T07:51:26.227Z,16.9
2018-04-22T07:52:17.107Z,16.9
2018-04-22T07:53:06.391Z,16.9
2018-04-22T07:53:55.497Z,16.9
2018-04-22T07:54:46.811Z,16.9
2018-04-22T07:55:37.085Z,16.9
2018-04-22T07:56:26.550Z,16.9
2018-04-22T07:57:17.152Z,16.9
2018-04-22T07:58:07.266Z,16.9
2018-04-22T07:58:56.055Z,16.9
2018-04-22T07:59:47.413Z,16.9
2018-04-22T08:00:36.373Z,16.9
2018-04-22T08:01:27.530Z,16.9
2018-04-22T08:02:16.602Z,16.9
2018-04-22T08:03:08.163Z,16.9
2018-04-22T08:03:57.448Z,16.9
2018-04-22T08:04:48.287Z,16.9
2018-04-22T08:05:37.814Z,16.9
2018-04-22T08:06:27.867Z,16.9
2018-04-22T08:07:18.789Z,16.9
2018-04-22T08:08:08.628Z,16.9
2018-04-22T08:08:58.352Z,16.9
2018-04-22T08:09:48.674Z,16.9
2018-04-22T08:10:38.475Z,16.9
2018-04-22T08:11:28.882Z,16.9
2018-04-22T08:12:18.861Z,16.9
2018-04-22T08:13:09.216Z,16.9
2018-04-22T08:13:58.259Z,16.9
2018-04-22T08:14:49.072Z,16.9
2018-04-22T08:15:38.913Z,16.9
2018-04-22T08:16:28.990Z,16.9
2018-04-22T08:17:19.561Z,16.9
2018-04-22T08:18:08.491Z,16.9
2018-04-22T08:18:59.096Z,16.9
2018-04-22T08:19:48.467Z,16.9
2018-04-22T08:20:38.706Z,16.9
2018-04-22T08:21:29.311Z,16.9
2018-04-22T08:22:19.711Z,16.9
2018-04-22T08:23:08.864Z,16.9
2018-04-22T08:23:59.509Z,16.9
2018-04-22T08:24:49.819Z,16.9
2018-04-22T08:25:39.925Z,16.9
2018-04-22T08:26:29.442Z,16.9
2018-04-22T08:27:20.341Z,16.9
2018-04-22T08:28:09.076Z,16.9
2018-04-22T08:28:59.481Z,16.9
2018-04-22T08:29:50.020Z,16.9
2018-04-22T08:30:39.814Z,16.9
2018-04-22T08:31:29.693Z,16.9
2018-04-22T08:32:19.948Z,16.9
2018-04-22T08:33:08.418Z,16.9
2018-04-22T08:34:00.826Z,16.9
2018-04-22T08:34:49.570Z,16.9
2018-04-22T08:35:39.676Z,16.9
2018-04-22T08:36:30.048Z,16.9
2018-04-22T08:37:20.344Z,16.9
2018-04-22T08:38:10.347Z,16.9
2018-04-22T08:39:00.937Z,16.9
2018-04-22T08:39:50.506Z,16.9
2018-04-22T08:40:40.228Z,16.9
2018-04-22T08:41:30.129Z,16.9
2018-04-22T08:42:19.906Z,16.9
2018-04-22T08:43:11.175Z,16.9
2018-04-22T08:44:01.802Z,16.9
2018-04-22T08:44:51.689Z,16.9
2018-04-22T08:45:41.206Z,16.9
2018-04-22T08:46:31.630Z,16.9
2018-04-22T08:47:21.847Z,16.9
2018-04-22T08:48:12.010Z,16.9
2018-04-22T08:49:01.166Z,16.9
2018-04-22T08:49:51.777Z,16.9
2018-04-22T08:50:42.798Z,16.9
2018-04-22T08:51:31.680Z,16.9
2018-04-22T08:52:20.655Z,16.9
2018-04-22T08:53:11.499Z,16.9
2018-04-22T08:54:01.845Z,16.9
2018-04-22T08:54:51.643Z,16.9
2018-04-22T08:55:42.217Z,16.9
2018-04-22T08:56:32.045Z,16.9
2018-04-22T08:57:21.816Z,16.9
2018-04-22T08:58:12.779Z,16.9
2018-04-22T08:59:02.267Z,16.9
2018-04-22T08:59:51.984Z,16.9
2018-04-22T09:00:41.831Z,16.9
2018-04-22T09:01:32.687Z,16.9
2018-04-22T09:02:22.467Z,16.9
2018-04-22T09:03:13.105Z,16.9
2018-04-22T09:04:02.890Z,16.9
2018-04-22T09:04:52.402Z,16.9
2018-04-22T09:05:43.365Z,16.9
2018-04-22T09:06:33.080Z,16.9
2018-04-22T09:07:23.129Z,16.9
2018-04-22T09:08:12.937Z,16.9
2018-04-22T09:09:03.535Z,16.9
2018-04-22T09:09:53.656Z,16.9
2018-04-22T09:10:43.124Z,16.9
2018-04-22T09:11:33.457Z,16.9
2018-04-22T09:12:22.680Z,16.9
2018-04-22T09:13:13.076Z,16.9
2018-04-22T09:14:03.962Z,16.9
2018-04-22T09:14:53.199Z,16.9
2018-04-22T09:15:44.081Z,16.9
2018-04-22T09:16:33.426Z,16.9
2018-04-22T09:17:22.798Z,16.9
2018-04-22T09:18:14.325Z,16.9
2018-04-22T09:19:03.506Z,16.9
2018-04-22T09:19:53.564Z,16.9
2018-04-22T09:20:43.934Z,16.9
2018-04-22T09:21:33.463Z,16.9
2018-04-22T09:22:23.866Z,16.9
2018-04-22T09:23:13.563Z,16.9
2018-04-22T09:24:04.727Z,16.9
2018-04-22T09:24:53.951Z,16.9
2018-04-22T09:26:34.711Z,16.9
2018-04-22T09:27:24.527Z,16.9
2018-04-22T09:29:05.135Z,16.9
2018-04-22T09:29:54.304Z,16.9
2018-04-22T09:30:44.204Z,16.9
2018-04-22T09:31:34.472Z,16.9
2018-04-22T09:32:25.120Z,16.9
2018-04-22T09:34:05.245Z,16.9
2018-04-22T09:34:55.577Z,16.9
2018-04-22T09:35:45.165Z,16.9
2018-04-22T09:36:35.442Z,16.9
2018-04-22T09:39:05.318Z,16.9
2018-04-22T09:39:55.160Z,16.9
2018-04-22T09:41:35.831Z,16.9
2018-04-22T09:43:16.262Z,16.9
2018-04-22T09:44:56.310Z,16.9
2018-04-22T09:45:46.098Z,16.9
2018-04-22T10:20:48.660Z,17.1
2018-04-22T10:29:08.752Z,17.1
2018-04-22T10:29:58.829Z,17.1
2018-04-22T10:34:58.121Z,17.1
2018-04-22T10:38:20.029Z,17.1
2018-04-22T10:39:09.244Z,17.1
2018-04-22T10:39:59.038Z,17.1
2018-04-22T10:40:49.161Z,17.1
2018-04-22T10:42:28.962Z,17.1
2018-04-22T10:44:09.381Z,17.1
2018-04-22T10:44:59.452Z,17.1
2018-04-22T10:45:49.771Z,17.1
2018-04-22T10:47:29.636Z,17.1
2018-04-22T10:48:20.516Z,17.1
2018-04-22T10:49:10.305Z,17.1
2018-04-22T10:50:00.133Z,17.1
2018-04-22T10:50:51.489Z,17.1
2018-04-22T10:51:41.272Z,17.1
2018-04-22T10:52:31.328Z,17.1
2018-04-22T10:53:21.388Z,17.1
2018-04-22T10:54:11.243Z,17.1
2018-04-22T10:55:01.298Z,17.1
2018-04-22T10:55:51.574Z,17.1
2018-04-22T10:56:41.407Z,17.1
2018-04-22T10:57:30.978Z,17.1
2018-04-22T10:58:21.274Z,17.1
2018-04-22T10:59:11.412Z,17.1
2018-04-22T11:00:02.341Z,17.1
2018-04-22T11:00:51.767Z,17.1
2018-04-22T11:01:41.485Z,17.1
2018-04-22T11:02:31.853Z,17.1
2018-04-22T11:03:21.637Z,17.1
2018-04-22T11:04:11.968Z,17.1
2018-04-22T11:05:01.716Z,17.1
2018-04-22T11:05:51.842Z,17.1
2018-04-22T11:06:42.475Z,17.1
2018-04-22T11:07:32.224Z,17.1
2018-04-22T11:08:22.004Z,17.1
2018-04-22T11:09:12.659Z,17.1
2018-04-22T11:10:01.595Z,17.1
2018-04-22T11:10:52.231Z,17.1
2018-04-22T11:11:42.082Z,17.1
2018-04-22T11:12:32.609Z,17.1
2018-04-22T11:13:23.007Z,17.1
2018-04-22T11:14:12.838Z,17.1
2018-04-22T11:15:02.532Z,17.1
2018-04-22T11:15:52.351Z,17.1
2018-04-22T11:16:42.214Z,17.1
2018-04-22T11:17:32.740Z,17.1
2018-04-22T11:18:23.689Z,17.1
2018-04-22T11:19:13.548Z,17.1
2018-04-22T11:20:03.810Z,17.1
2018-04-22T11:20:52.969Z,17.1
2018-04-22T11:21:43.602Z,17.1
2018-04-22T11:22:33.937Z,17.1
2018-04-22T11:23:23.555Z,17.1
2018-04-22T11:24:13.248Z,17.1
2018-04-22T11:25:03.376Z,17.1
2018-04-22T11:25:53.664Z,17.1
2018-04-22T11:26:43.706Z,17.1
2018-04-22T11:27:34.694Z,17.1
2018-04-22T11:28:24.413Z,17.1
2018-04-22T11:29:13.150Z,17.1
2018-04-22T11:30:04.294Z,17.1
2018-04-22T11:30:53.767Z,17.1
2018-04-22T11:31:44.668Z,17.1
2018-04-22T11:32:34.717Z,17.1
2018-04-22T11:33:24.803Z,17.1
2018-04-22T11:34:14.633Z,17.1
2018-04-22T11:35:04.378Z,17.1
2018-04-22T11:35:53.660Z,17.1
2018-04-22T11:36:44.207Z,17.1
2018-04-22T11:37:34.278Z,17.1
2018-04-22T11:38:24.366Z,17.1
2018-04-22T11:39:14.423Z,17.1
2018-04-22T11:40:04.764Z,17.1
2018-04-22T11:40:55.389Z,17.1
2018-04-22T11:41:44.627Z,17.1
2018-04-22T11:42:35.246Z,17.1
2018-04-22T11:43:25.569Z,17.1
2018-04-22T11:44:15.044Z,17.1
2018-04-22T11:45:05.179Z,17.1
2018-04-22T11:45:55.289Z,17.1
2018-04-22T11:46:44.981Z,17.1
2018-04-22T11:47:35.627Z,17.1
2018-04-22T11:48:25.114Z,17.1
2018-04-22T11:49:15.730Z,17.1
2018-04-22T11:50:06.083Z,17.1
2018-04-22T11:50:55.888Z,17.1
2018-04-22T11:51:45.415Z,17.1
2018-04-22T11:52:36.377Z,17.1
2018-04-22T11:53:25.828Z,17.1
2018-04-22T11:54:15.578Z,17.1
2018-04-22T11:55:05.969Z,17.1
2018-04-22T11:55:55.530Z,17.1
2018-04-22T11:56:46.408Z,17.1
2018-04-22T11:57:35.843Z,17.1
2018-04-22T11:58:25.629Z,17.1
2018-04-22T11:59:16.283Z,17.1
2018-04-22T12:00:06.795Z,17.1
2018-04-22T12:00:56.953Z,17.1
2018-04-22T12:01:45.897Z,17.1
2018-04-22T12:02:37.153Z,17.1
2018-04-22T12:03:26.886Z,17.1
2018-04-22T12:04:17.195Z,17.2
2018-04-22T12:05:07.014Z,17.1
2018-04-22T12:05:57.167Z,17.2
2018-04-22T12:06:46.356Z,17.2
2018-04-22T12:07:36.750Z,17.1
2018-04-22T12:08:27.229Z,17.1
2018-04-22T12:09:17.310Z,17.1
2018-04-22T12:10:07.414Z,17.1
2018-04-22T12:10:57.444Z,17.1
2018-04-22T12:11:47.745Z,17.2
2018-04-22T12:12:37.518Z,17.2
2018-04-22T12:13:27.366Z,17.2
2018-04-22T12:14:16.883Z,17.2
2018-04-22T12:15:07.845Z,17.2
2018-04-22T12:15:57.794Z,17.1
2018-04-22T12:16:47.919Z,17.1
2018-04-22T12:17:38.282Z,17.2
2018-04-22T12:18:27.752Z,17.2
2018-04-22T12:19:17.599Z,17.2
2018-04-22T12:20:07.867Z,17.1
2018-04-22T12:20:58.256Z,17.2
2018-04-22T12:21:47.856Z,17.2
2018-04-22T12:22:37.825Z,17.2
2018-04-22T12:23:28.732Z,17.2
2018-04-22T12:24:18.803Z,17.2